Kermit, TX

3:46 AM CST on November 27, 2014 (GMT -0600)
Winkler County | Change Station
CLOSE
Current Station
Airport
Location: Wink,
Elevation: 2822 ft
Nearby Weather Stations

Elev 2822 ft 31.78 °N, 103.20 °W | Updated 53 minutes ago

Clear
Clear
34 °F
Feels Like 30 °F
N
5
Wind Variable Wind from NE

Today
High -- | Low -- °F
--% Chance of Precip.
Yesterday
High -- | Low -- °F
Precip. -- in
7:31 AM 5:48 PM
Waxing Crescent, 28% visible
Pressure 30.35 in
Visibility 10.0 miles
Clouds Clear
Windchill 30 °F
Dew Point 24 °F
Humidity 67%
Rainfall 0.00 in
Snow Depth Not available.
UV 0 out of 12
Pollen 5.80 out of 12
Air Quality Not available.
Flu Activity Not available.
METAR KINK 270853Z AUTO 05004KT 10SM CLR 01/M04 A3039 RMK AO2 SLP275 T00111044 53012

More Conditions Fewer Conditions

Pressure 30.35 in
Visibility 10.0 miles
Clouds Clear
Windchill 30 °F
Dew Point 24 °F
Humidity 67%
Rainfall 0.00 in
Snow Depth Not available.
UV 0 out of 12
Pollen 5.80 out of 12
Air Quality Not available.
Flu Activity Not available.
METAR KINK 270853Z AUTO 05004KT 10SM CLR 01/M04 A3039 RMK AO2 SLP275 T00111044 53012

More Conditions Fewer Conditions

10-Day Weather Forecast

Almanac

Astronomy

Nov. 27, 2014 Rise Set
Actual Time
Civil Twilight
Nautical Twilight
Astronomical Twilight
Moon
Length of Visible Light
Length of Day
Tomorrow will be .
, % of the Moon is Illuminated

Today's Extremes

State Highs State Lows

Community

WunderPhotos

Upload Photos

1,773,965 photos uploaded!

WunderBlogs® & News

Nearby

Air Quality

  Air Quality AQ Index Pollutant
Not available.

Snow Depth

Station Depth Elevation

Earthquake Activity

City Distance Mag. Time & Date
Minimum magnitude displayed is 2.5.

Coastal Water Temperatures

Place Temperature

Nearby Weather Stations